Time;durP1;ratioP1;P1;durP2;ratioP2;P2;SDS_P1;SDS_P2;PMS_P1;PMS_P2;Temp;Humidity;BMP_temperature;BMP_pressure;BME280_temperature;BME280_humidity;BME280_pressure;Samples;Min_cycle;Max_cycle;Signal;HPM_P1;HPM_P2
2022/10/27 00:00:20;;;;;;;4.07;1.65;;;;;;;15.34;72.75;102074.38;5087368;28;20062;-68
2022/10/27 00:02:48;;;;;;;5.28;1.52;;;;;;;15.34;72.65;102079.78;5088382;28;20058;-68
2022/10/27 00:05:16;;;;;;;7.13;2.22;;;;;;;15.34;72.55;102079.78;5088772;28;20059;-68
2022/10/27 00:11:33;;;;;;;4.97;2.08;;;;;;;15.32;72.53;102072.94;5088097;28;20043;-68
2022/10/27 00:14:01;;;;;;;3.15;1.58;;;;;;;15.30;72.74;102076.69;5097592;28;20048;-68
2022/10/27 00:16:28;;;;;;;3.20;1.70;;;;;;;15.32;72.70;102084.59;5105975;28;20048;-68
2022/10/27 00:18:56;;;;;;;3.95;1.60;;;;;;;15.31;72.55;102074.81;5095087;28;20064;-68
2022/10/27 00:21:23;;;;;;;3.72;1.90;;;;;;;15.32;72.66;102086.50;5087824;28;20055;-68
2022/10/27 00:23:52;;;;;;;4.10;1.35;;;;;;;15.30;72.62;102089.41;5095722;28;20051;-68
2022/10/27 00:26:21;;;;;;;5.95;2.47;;;;;;;15.30;72.62;102084.84;5087874;28;20075;-68
2022/10/27 00:28:50;;;;;;;4.43;2.15;;;;;;;15.29;72.50;102091.28;5089805;28;20060;-68
2022/10/27 00:31:19;;;;;;;6.15;1.75;;;;;;;15.30;72.75;102081.28;5107130;28;20050;-68
2022/10/27 00:33:49;;;;;;;4.45;1.50;;;;;;;15.29;72.69;102091.28;5107284;28;20059;-68
2022/10/27 00:36:19;;;;;;;2.72;1.60;;;;;;;15.29;72.67;102087.75;5088037;28;20048;-68
2022/10/27 00:38:47;;;;;;;4.68;2.03;;;;;;;15.28;72.52;102095.06;5088143;28;20054;-68
2022/10/27 00:41:25;;;;;;;3.70;1.58;;;;;;;15.28;72.63;102096.94;5087628;28;20151;-68
2022/10/27 00:43:55;;;;;;;4.35;1.55;;;;;;;15.26;72.60;102094.44;5088105;28;20063;-68
2022/10/27 00:46:31;;;;;;;5.65;1.75;;;;;;;15.27;72.53;102098.00;5101896;28;20245;-68
2022/10/27 00:49:03;;;;;;;4.53;1.88;;;;;;;15.27;72.64;102100.69;5107701;28;20048;-68
2022/10/27 00:51:31;;;;;;;4.28;1.77;;;;;;;15.26;72.63;102101.75;5092517;28;20078;-68
2022/10/27 00:53:58;;;;;;;4.30;1.73;;;;;;;15.26;72.74;102101.75;5096114;28;20048;-68
2022/10/27 00:56:26;;;;;;;4.53;2.40;;;;;;;15.26;72.80;102099.88;5099463;28;20068;-68
2022/10/27 00:58:56;;;;;;;4.35;2.05;;;;;;;15.25;72.75;102103.63;5087747;28;20064;-68
2022/10/27 01:01:24;;;;;;;3.42;1.55;;;;;;;15.25;72.68;102108.22;5086085;28;20063;-68
2022/10/27 01:03:52;;;;;;;5.32;1.60;;;;;;;15.26;72.60;102107.16;5090859;28;20053;-68
2022/10/27 01:06:19;;;;;;;3.50;1.70;;;;;;;15.25;72.63;102102.81;5087318;28;20060;-68
2022/10/27 01:08:49;;;;;;;3.63;1.42;;;;;;;15.24;72.48;102109.25;5087395;28;20049;-68
2022/10/27 01:11:16;;;;;;;2.45;1.30;;;;;;;15.24;72.63;102103.84;5086841;28;20044;-68
2022/10/27 01:13:44;;;;;;;4.22;1.77;;;;;;;15.24;72.61;102103.84;5094097;28;20048;-68
2022/10/27 01:16:26;;;;;;;3.63;1.50;;;;;;;15.23;72.58;102110.31;5105065;28;20059;-68
2022/10/27 01:19:04;;;;;;;2.40;1.50;;;;;;;15.23;72.71;102113.84;5087054;28;20064;-68
2022/10/27 01:21:58;;;;;;;4.78;1.85;;;;;;;15.22;72.62;102108.66;5086899;28;20052;-68
2022/10/27 01:25:04;;;;;;;3.45;1.65;;;;;;;15.22;72.64;102117.63;5087265;28;20399;-68
2022/10/27 01:27:59;;;;;;;2.20;1.27;;;;;;;15.22;72.68;102114.91;5087073;28;20044;-68
2022/10/27 01:30:29;;;;;;;4.03;1.88;;;;;;;15.22;72.68;102111.38;5085639;28;20067;-68
2022/10/27 01:33:07;;;;;;;2.60;1.70;;;;;;;15.22;72.60;102116.78;5086550;28;20044;-68
2022/10/27 01:35:44;;;;;;;4.53;1.75;;;;;;;15.21;72.80;102115.13;5086925;28;20055;-68
2022/10/27 01:38:18;;;;;;;3.10;1.65;;;;;;;15.20;72.70;102114.28;5087236;28;20052;-68
2022/10/27 01:40:54;;;;;;;6.43;1.52;;;;;;;15.20;72.59;102121.59;5086764;28;20060;-68
2022/10/27 01:43:24;;;;;;;2.92;1.58;;;;;;;15.12;72.79;102103.75;5086714;28;20131;-68
2022/10/27 01:45:54;;;;;;;3.10;1.90;;;;;;;15.19;72.86;102115.34;5090134;28;20048;-68
2022/10/27 01:48:23;;;;;;;3.42;1.65;;;;;;;15.19;72.75;102112.63;5086187;28;20048;-68
2022/10/27 01:50:51;;;;;;;3.25;1.63;;;;;;;15.19;72.68;102117.22;5086342;28;20055;-68
2022/10/27 01:53:39;;;;;;;3.50;1.92;;;;;;;15.19;72.62;102111.81;5091273;28;20093;-68
2022/10/27 01:56:25;;;;;;;3.75;1.50;;;;;;;15.19;72.62;102109.09;5094187;28;20053;-68
2022/10/27 01:59:14;;;;;;;5.15;1.58;;;;;;;15.18;72.75;102115.56;5086659;28;20055;-68
2022/10/27 02:01:54;;;;;;;3.20;1.50;;;;;;;15.09;72.75;102101.47;5091481;28;20052;-68
2022/10/27 02:04:33;;;;;;;3.88;1.52;;;;;;;15.18;72.77;102110.16;5086117;28;20049;-68
2022/10/27 02:07:09;;;;;;;6.95;1.80;;;;;;;15.17;72.83;102106.63;5086351;28;20045;-69
2022/10/27 02:09:43;;;;;;;2.85;1.55;;;;;;;15.16;72.74;102104.97;5086173;28;20122;-68
2022/10/27 02:12:17;;;;;;;4.65;1.55;;;;;;;15.15;72.82;102100.59;5086070;28;20052;-68
2022/10/27 02:14:45;;;;;;;5.20;1.70;;;;;;;15.16;72.64;102099.53;5100198;28;20059;-68
2022/10/27 02:17:13;;;;;;;4.70;1.88;;;;;;;15.17;72.77;102108.50;5091965;28;20059;-68
2022/10/27 02:19:47;;;;;;;4.32;1.52;;;;;;;15.15;72.75;102100.59;5084987;28;20052;-68
2022/10/27 02:22:15;;;;;;;4.90;1.95;;;;;;;15.14;72.63;102098.94;5094105;28;20052;-68
2022/10/27 02:24:43;;;;;;;4.35;1.73;;;;;;;15.14;72.73;102093.53;5085819;28;20049;-68
2022/10/27 02:27:16;;;;;;;4.97;1.73;;;;;;;15.12;72.75;102092.91;5094282;28;20083;-68
2022/10/27 02:29:46;;;;;;;3.67;1.75;;;;;;;15.13;72.76;102081.03;5084750;28;20066;-68
2022/10/27 02:32:18;;;;;;;3.17;1.60;;;;;;;15.13;72.76;102096.44;5085661;28;20065;-68
2022/10/27 02:34:49;;;;;;;5.03;1.70;;;;;;;15.11;72.94;102088.53;5085631;28;20492;-68
2022/10/27 02:37:19;;;;;;;5.78;2.20;;;;;;;15.11;72.83;102095.84;5085740;28;20052;-69
2022/10/27 02:39:47;;;;;;;5.72;1.73;;;;;;;15.10;72.81;102092.31;5090942;28;20069;-68
2022/10/27 02:42:15;;;;;;;3.53;1.88;;;;;;;15.09;72.93;102087.94;5086994;28;20052;-68
2022/10/27 02:44:42;;;;;;;5.85;1.70;;;;;;;15.09;72.78;102087.09;5087036;28;20062;-68
2022/10/27 02:47:10;;;;;;;6.22;2.00;;;;;;;15.10;72.67;102088.78;5086338;28;20048;-68
2022/10/27 02:49:38;;;;;;;4.70;1.52;;;;;;;15.08;72.88;102089.00;5085057;28;20044;-68
2022/10/27 02:52:07;;;;;;;3.17;1.60;;;;;;;15.08;72.76;102080.03;5085422;28;20059;-68
2022/10/27 02:54:34;;;;;;;3.13;1.88;;;;;;;15.07;72.82;102083.78;5097207;28;20056;-68
2022/10/27 02:57:02;;;;;;;4.68;2.00;;;;;;;15.07;72.98;102081.91;5085582;28;20059;-68
2022/10/27 02:59:30;;;;;;;3.25;1.73;;;;;;;15.06;72.78;102085.69;5084290;28;20056;-68
2022/10/27 03:01:58;;;;;;;3.05;1.73;;;;;;;15.03;72.77;102078.00;5085230;28;20063;-68
2022/10/27 03:04:25;;;;;;;8.43;2.00;;;;;;;15.06;72.84;102076.72;5084675;28;20048;-68
2022/10/27 03:06:53;;;;;;;3.80;1.83;;;;;;;15.01;72.79;102063.03;5085496;28;20048;-69
2022/10/27 03:09:22;;;;;;;3.70;1.92;;;;;;;15.04;72.69;102065.28;5098061;28;20062;-67
2022/10/27 03:11:50;;;;;;;7.32;1.85;;;;;;;15.02;72.80;102065.50;5085214;28;20048;-67
2022/10/27 03:14:18;;;;;;;5.72;1.98;;;;;;;15.01;72.74;102066.56;5095938;28;20062;-68
2022/10/27 03:16:45;;;;;;;5.45;1.80;;;;;;;15.01;72.65;102053.03;5105019;28;20044;-67
2022/10/27 03:19:13;;;;;;;4.93;2.00;;;;;;;15.01;72.43;102052.19;5084721;28;20052;-67
2022/10/27 03:21:41;;;;;;;4.53;1.90;;;;;;;15.00;72.56;102055.94;5084944;28;20058;-67
2022/10/27 03:24:09;;;;;;;6.35;2.58;;;;;;;15.00;72.58;102064.06;5084950;28;20052;-68
2022/10/27 03:26:38;;;;;;;5.93;2.10;;;;;;;14.98;72.71;102048.03;5096188;28;20058;-69
2022/10/27 03:29:06;;;;;;;4.10;1.92;;;;;;;14.96;72.72;102047.44;5085060;28;20067;-68
2022/10/27 03:31:33;;;;;;;6.20;1.73;;;;;;;14.97;72.60;102043.69;5083699;28;20049;-68
2022/10/27 03:34:01;;;;;;;6.95;1.85;;;;;;;14.95;72.73;102043.91;5084458;28;20071;-68
2022/10/27 03:36:29;;;;;;;3.53;1.60;;;;;;;14.91;72.52;102037.28;5084825;28;20044;-68
2022/10/27 03:38:56;;;;;;;6.97;2.42;;;;;;;14.94;72.71;102044.13;5084801;28;20112;-68
2022/10/27 03:41:24;;;;;;;5.97;2.13;;;;;;;14.93;72.57;102037.88;5084364;28;20044;-68
2022/10/27 03:43:53;;;;;;;4.80;1.70;;;;;;;14.94;72.37;102041.41;5084665;28;20044;-68
2022/10/27 03:46:21;;;;;;;4.15;1.90;;;;;;;14.94;72.45;102044.13;5088224;28;20049;-68
2022/10/27 03:48:48;;;;;;;5.40;2.08;;;;;;;14.92;72.52;102044.34;5084392;28;20048;-68
2022/10/27 03:51:16;;;;;;;2.42;1.52;;;;;;;14.91;72.43;102045.41;5084208;28;20040;-68
2022/10/27 03:53:44;;;;;;;3.42;1.67;;;;;;;14.91;72.22;102047.28;5090822;28;20044;-68
2022/10/27 03:56:13;;;;;;;3.13;1.60;;;;;;;14.90;72.56;102040.22;5091763;28;20048;-68
2022/10/27 03:58:41;;;;;;;3.17;1.73;;;;;;;14.89;72.34;102041.25;5084855;28;20054;-68
2022/10/27 04:01:11;;;;;;;3.03;1.60;;;;;;;14.88;72.28;102039.59;5083344;28;20055;-68
2022/10/27 04:03:39;;;;;;;3.35;1.60;;;;;;;14.88;72.37;102042.31;5091931;28;20052;-68
2022/10/27 04:06:07;;;;;;;6.00;2.65;;;;;;;14.87;72.25;102043.34;5084541;28;20055;-68
2022/10/27 04:08:35;;;;;;;5.95;1.58;;;;;;;14.87;72.17;102052.31;5084699;28;20052;-67
2022/10/27 04:11:02;;;;;;;3.88;1.75;;;;;;;14.86;72.23;102045.22;5083984;28;20280;-68
2022/10/27 04:13:30;;;;;;;5.80;1.90;;;;;;;14.85;72.05;102040.88;5089054;28;20048;-68
2022/10/27 04:15:59;;;;;;;4.88;2.17;;;;;;;14.84;72.01;102044.63;5087222;28;20058;-68
2022/10/27 04:18:28;;;;;;;3.83;2.03;;;;;;;14.85;72.21;102050.88;5083658;28;20052;-68
2022/10/27 04:21:00;;;;;;;2.28;1.65;;;;;;;14.84;72.15;102049.22;5084130;28;20045;-68
2022/10/27 04:23:28;;;;;;;6.00;2.63;;;;;;;14.82;72.09;102054.84;5084439;28;20410;-68
2022/10/27 04:25:55;;;;;;;5.55;1.90;;;;;;;14.82;71.94;102052.13;5083864;28;20048;-68
2022/10/27 04:28:23;;;;;;;4.60;1.75;;;;;;;14.82;72.07;102046.72;5084430;28;20063;-68
2022/10/27 04:30:51;;;;;;;7.93;2.20;;;;;;;14.83;71.82;102047.56;5082850;28;20075;-68
2022/10/27 04:33:19;;;;;;;3.28;2.05;;;;;;;14.74;71.99;102043.47;5083577;28;20063;-68
2022/10/27 04:35:54;;;;;;;2.50;1.63;;;;;;;14.82;71.80;102052.13;5103056;28;20533;-68
2022/10/27 04:38:22;;;;;;;3.83;2.45;;;;;;;14.82;72.08;102062.97;5091881;28;20044;-68
2022/10/27 04:40:49;;;;;;;4.70;1.92;;;;;;;14.81;71.89;102060.47;5084307;28;20108;-68
2022/10/27 04:43:17;;;;;;;5.82;2.08;;;;;;;14.81;72.00;102060.47;5086052;28;20066;-68
2022/10/27 04:45:45;;;;;;;5.65;2.08;;;;;;;14.80;71.99;102066.94;5091037;28;20044;-68
2022/10/27 04:48:13;;;;;;;4.68;2.15;;;;;;;14.80;72.00;102064.22;5087564;28;20120;-68
2022/10/27 04:50:41;;;;;;;5.30;2.13;;;;;;;14.77;71.95;102060.09;5087488;28;20064;-69
2022/10/27 04:53:10;;;;;;;4.85;2.30;;;;;;;14.77;72.04;102057.38;5088923;28;20053;-68
2022/10/27 04:55:37;;;;;;;6.38;2.22;;;;;;;14.74;72.00;102057.81;5099388;28;20398;-68
2022/10/27 04:58:05;;;;;;;5.72;1.88;;;;;;;14.75;72.00;102061.34;5087978;28;20044;-68
2022/10/27 05:00:36;;;;;;;5.28;1.80;;;;;;;14.73;72.21;102058.03;5086048;28;20455;-68
2022/10/27 05:03:04;;;;;;;7.47;2.25;;;;;;;14.73;72.26;102056.16;5087437;28;20040;-68
2022/10/27 05:05:32;;;;;;;4.30;2.40;;;;;;;14.72;71.89;102070.75;5087187;28;20528;-68
2022/10/27 05:08:01;;;;;;;5.10;2.22;;;;;;;14.72;72.24;102064.50;5093610;28;20049;-69
2022/10/27 05:10:32;;;;;;;2.65;1.75;;;;;;;14.69;72.20;102059.53;5087442;28;20050;-68
2022/10/27 05:13:00;;;;;;;7.15;2.08;;;;;;;14.71;71.78;102060.13;5088009;28;20059;-68
2022/10/27 05:15:28;;;;;;;4.90;1.90;;;;;;;14.71;72.24;102058.25;5104979;28;20128;-68
2022/10/27 05:17:56;;;;;;;5.07;2.10;;;;;;;14.69;72.17;102056.81;5086727;28;20054;-68
2022/10/27 05:20:24;;;;;;;4.63;1.70;;;;;;;14.65;72.44;102043.72;5086910;28;20056;-68
2022/10/27 05:22:52;;;;;;;6.63;2.08;;;;;;;14.68;72.13;102057.88;5087171;28;20045;-68
2022/10/27 05:25:19;;;;;;;5.38;2.00;;;;;;;14.69;72.17;102056.81;5086967;28;20055;-68
2022/10/27 05:27:48;;;;;;;6.10;2.47;;;;;;;14.69;72.08;102059.53;5087368;28;20059;-68
2022/10/27 05:30:17;;;;;;;4.38;1.95;;;;;;;14.67;72.17;102054.34;5092845;28;20052;-68
2022/10/27 05:32:44;;;;;;;3.42;2.35;;;;;;;14.65;71.97;102051.84;5086749;28;20338;-68
2022/10/27 05:35:14;;;;;;;5.32;2.33;;;;;;;14.66;72.13;102055.38;5093030;28;20056;-67
2022/10/27 05:37:44;;;;;;;6.13;2.00;;;;;;;14.64;72.11;102049.38;5087270;28;20049;-67
2022/10/27 05:40:12;;;;;;;3.72;1.83;;;;;;;14.65;72.17;102053.72;5087006;28;20072;-67
2022/10/27 05:42:40;;;;;;;5.07;2.10;;;;;;;14.64;72.25;102047.47;5087300;28;20041;-67
2022/10/27 05:45:10;;;;;;;3.75;2.10;;;;;;;14.63;72.32;102055.81;5090180;28;20050;-67
2022/10/27 05:47:37;;;;;;;4.13;1.90;;;;;;;14.63;72.10;102059.34;5086701;28;20055;-67
2022/10/27 05:50:06;;;;;;;6.78;2.30;;;;;;;14.64;72.19;102060.19;5086698;28;20056;-67
2022/10/27 05:52:33;;;;;;;7.38;2.63;;;;;;;14.63;72.27;102056.66;5086873;28;20051;-67
2022/10/27 05:55:01;;;;;;;3.13;1.80;;;;;;;14.63;71.98;102048.53;5098873;28;20051;-67
2022/10/27 05:57:29;;;;;;;4.78;2.10;;;;;;;14.62;72.23;102051.47;5086961;28;20049;-67
2022/10/27 05:59:56;;;;;;;4.35;1.90;;;;;;;14.62;72.22;102056.88;5098428;28;20055;-68
2022/10/27 06:02:25;;;;;;;5.93;2.08;;;;;;;14.61;72.04;102049.78;5086505;28;20064;-67
2022/10/27 06:04:53;;;;;;;5.32;2.55;;;;;;;14.61;72.10;102045.22;5098794;28;20053;-67
2022/10/27 06:07:21;;;;;;;5.53;2.10;;;;;;;14.60;72.30;102051.69;5086930;28;20048;-67
2022/10/27 06:09:49;;;;;;;5.00;2.55;;;;;;;14.60;72.23;102048.13;5086116;28;20052;-67
2022/10/27 06:12:16;;;;;;;4.30;1.90;;;;;;;14.60;72.14;102048.13;5085751;28;20156;-68
2022/10/27 06:14:44;;;;;;;5.55;2.45;;;;;;;14.58;72.30;102039.41;5099407;28;20062;-67
2022/10/27 06:17:12;;;;;;;4.72;2.00;;;;;;;14.59;72.40;102030.25;5092273;28;20055;-68
2022/10/27 06:19:42;;;;;;;3.72;2.00;;;;;;;14.59;72.37;102032.97;5084949;28;20067;-68
2022/10/27 06:22:10;;;;;;;4.65;2.03;;;;;;;14.59;72.18;102027.53;5085646;28;20047;-68
2022/10/27 06:24:43;;;;;;;8.35;2.42;;;;;;;14.58;72.30;102023.19;5092764;28;20055;-68
2022/10/27 06:27:10;;;;;;;4.40;2.03;;;;;;;14.58;72.06;102029.41;5091323;28;20052;-68
2022/10/27 06:29:38;;;;;;;5.82;1.88;;;;;;;14.58;72.32;102029.41;5084776;28;20059;-67
2022/10/27 06:32:06;;;;;;;6.75;2.13;;;;;;;14.59;72.05;102028.38;5085824;28;20044;-67
2022/10/27 06:34:33;;;;;;;4.18;1.90;;;;;;;14.57;72.19;102025.06;5085514;28;20055;-67
2022/10/27 06:37:04;;;;;;;6.15;2.55;;;;;;;14.57;72.02;102027.75;5085905;28;20332;-68
2022/10/27 06:39:32;;;;;;;4.70;2.15;;;;;;;14.53;71.94;102014.91;5085451;28;20490;-67
2022/10/27 06:42:00;;;;;;;4.35;1.90;;;;;;;14.56;72.24;102026.09;5085415;28;20049;-67
2022/10/27 06:44:27;;;;;;;6.50;2.03;;;;;;;14.54;72.26;102022.78;5084398;28;20595;-68
2022/10/27 06:46:55;;;;;;;3.63;1.92;;;;;;;14.54;72.33;102019.25;5088663;28;20508;-67
2022/10/27 06:49:23;;;;;;;4.25;1.92;;;;;;;14.56;72.22;102025.28;5084926;28;20056;-68
2022/10/27 06:51:51;;;;;;;4.03;1.65;;;;;;;14.56;71.83;102025.28;5101138;28;20041;-67
2022/10/27 06:54:20;;;;;;;3.10;1.80;;;;;;;14.56;72.18;102022.56;5105541;28;20066;-67
2022/10/27 06:56:47;;;;;;;4.50;1.73;;;;;;;14.55;72.21;102023.63;5087338;28;20134;-67
2022/10/27 06:59:15;;;;;;;4.82;2.03;;;;;;;14.54;72.06;102014.69;5084840;28;20493;-71
2022/10/27 07:01:43;;;;;;;7.90;2.17;;;;;;;14.53;72.08;102018.44;5084463;28;20048;-70
2022/10/27 07:04:11;;;;;;;3.17;1.38;;;;;;;14.53;71.90;102017.59;5084991;28;20044;-69
2022/10/27 07:06:38;;;;;;;5.50;1.95;;;;;;;14.53;72.11;102014.91;5089536;28;20116;-68
2022/10/27 07:09:06;;;;;;;4.35;1.70;;;;;;;14.51;72.16;102009.69;5092716;28;20048;-67
2022/10/27 07:11:38;;;;;;;2.70;1.73;;;;;;;14.52;72.15;102014.06;5091981;28;20358;-64
2022/10/27 07:14:05;;;;;;;5.53;1.90;;;;;;;14.52;72.22;102016.78;5094380;28;20040;-67
2022/10/27 07:16:33;;;;;;;3.05;1.88;;;;;;;14.51;72.04;102017.81;5092237;28;20048;-68
2022/10/27 07:19:02;;;;;;;4.18;1.90;;;;;;;14.52;71.91;102024.06;5089258;28;20181;-67
2022/10/27 07:21:29;;;;;;;4.78;1.80;;;;;;;14.52;72.10;102032.19;5091084;28;20052;-67
2022/10/27 07:23:57;;;;;;;4.07;1.98;;;;;;;14.52;72.18;102029.47;5094438;28;20050;-68
2022/10/27 07:26:25;;;;;;;4.03;1.63;;;;;;;14.51;72.19;102025.94;5091848;28;20048;-67
2022/10/27 07:28:54;;;;;;;3.08;1.38;;;;;;;14.51;72.11;102023.22;5093116;28;20587;-67
2022/10/27 07:31:21;;;;;;;4.88;1.67;;;;;;;14.51;71.86;102020.53;5088734;28;20048;-62
2022/10/27 07:33:49;;;;;;;3.67;1.73;;;;;;;14.52;71.78;102018.66;5090331;28;20051;-65
2022/10/27 07:36:17;;;;;;;6.07;2.17;;;;;;;14.53;72.10;102023.00;5093797;28;20090;-63
2022/10/27 07:38:45;;;;;;;3.53;1.70;;;;;;;14.54;72.16;102014.69;5088805;28;20055;-66
2022/10/27 07:41:12;;;;;;;3.97;1.60;;;;;;;14.56;71.78;102025.28;5084595;28;20062;-67
2022/10/27 07:43:40;;;;;;;5.40;1.80;;;;;;;14.58;72.22;102021.31;5084729;28;20054;-66
2022/10/27 07:46:09;;;;;;;8.27;2.03;;;;;;;14.60;71.83;102023.78;5087561;28;20049;-69
2022/10/27 07:48:37;;;;;;;3.22;1.63;;;;;;;14.51;71.79;102012.41;5084541;28;20052;-63
2022/10/27 07:51:05;;;;;;;3.80;1.77;;;;;;;14.62;72.20;102024.41;5084266;28;20171;-66
2022/10/27 07:53:32;;;;;;;3.33;1.58;;;;;;;14.64;72.06;102035.84;5088782;28;20040;-66
2022/10/27 07:56:01;;;;;;;4.75;1.58;;;;;;;14.64;71.90;102038.53;5093485;28;20044;-66
2022/10/27 07:58:29;;;;;;;4.07;1.73;;;;;;;14.61;71.88;102034.41;5084657;28;20048;-67
2022/10/27 08:00:58;;;;;;;4.45;1.77;;;;;;;14.62;71.83;102035.22;5083363;28;20049;-68
2022/10/27 08:03:30;;;;;;;3.40;1.48;;;;;;;14.62;71.84;102027.09;5084318;28;20049;-69
2022/10/27 08:06:01;;;;;;;3.88;2.00;;;;;;;14.63;72.08;102018.78;5084545;28;20056;-69
2022/10/27 08:08:30;;;;;;;2.78;1.60;;;;;;;14.63;71.81;102020.66;5084296;28;20061;-69
2022/10/27 08:10:58;;;;;;;3.22;1.77;;;;;;;14.64;72.18;102023.13;5084225;28;20116;-68
2022/10/27 08:13:25;;;;;;;3.50;1.67;;;;;;;14.65;71.83;102029.38;5088534;28;20050;-69
2022/10/27 08:15:56;;;;;;;5.38;1.52;;;;;;;14.64;72.00;102022.31;5092972;28;20055;-71
2022/10/27 08:18:24;;;;;;;2.72;1.42;;;;;;;14.65;72.06;102026.66;5085993;28;20052;-70
2022/10/27 08:20:54;;;;;;;4.97;1.38;;;;;;;14.65;72.05;102016.66;5088287;28;20113;-70
2022/10/27 08:23:24;;;;;;;5.35;1.65;;;;;;;14.66;72.17;102012.09;5089290;28;20048;-68
2022/10/27 08:25:53;;;;;;;4.97;1.48;;;;;;;14.68;72.17;102015.41;5098438;28;20059;-68
2022/10/27 08:28:21;;;;;;;4.38;1.98;;;;;;;14.74;72.80;102017.22;5088228;28;20048;-67
2022/10/27 08:30:51;;;;;;;4.82;1.58;;;;;;;14.86;71.98;102020.03;5087563;28;20049;-69
2022/10/27 08:33:20;;;;;;;5.28;1.30;;;;;;;14.93;71.72;102002.69;5088893;28;20150;-68
2022/10/27 08:35:49;;;;;;;4.60;1.80;;;;;;;14.87;71.96;102010.88;5101123;28;20076;-68
2022/10/27 08:38:18;;;;;;;4.45;1.50;;;;;;;14.82;72.25;102005.28;5095693;28;20053;-67
2022/10/27 08:41:10;;;;;;;3.83;1.35;;;;;;;14.82;72.23;101998.00;5092343;28;20044;-69
2022/10/27 08:43:47;;;;;;;3.15;1.40;;;;;;;14.82;72.29;102002.59;5093441;28;20058;-69
2022/10/27 08:46:22;;;;;;;3.42;1.40;;;;;;;14.80;71.95;101999.28;5098851;28;20055;-68
2022/10/27 08:48:53;;;;;;;6.50;1.55;;;;;;;14.78;71.77;101998.66;5092579;28;20056;-67
2022/10/27 08:51:24;;;;;;;7.45;1.42;;;;;;;14.81;71.75;101999.06;5107843;28;20044;-68
2022/10/27 08:53:59;;;;;;;4.43;1.43;;;;;;;14.78;71.84;101993.25;5095807;28;20485;-68
2022/10/27 08:56:34;;;;;;;2.45;1.13;;;;;;;14.78;71.87;101994.09;5092120;28;20048;-68
2022/10/27 08:59:02;;;;;;;2.22;1.23;;;;;;;14.78;71.90;101985.13;5087669;28;20087;-67
2022/10/27 09:01:36;;;;;;;6.03;1.77;;;;;;;14.77;71.92;101978.06;5086236;28;20052;-67
2022/10/27 09:04:43;;;;;;;4.07;1.38;;;;;;;14.77;71.98;101959.13;5087352;28;20524;-68
2022/10/27 09:07:18;;;;;;;2.07;0.90;;;;;;;14.75;72.10;101967.47;5087340;28;20064;-68
2022/10/27 09:09:53;;;;;;;2.35;1.30;;;;;;;14.76;72.08;101971.81;5086906;28;20066;-68
2022/10/27 09:12:47;;;;;;;4.85;1.33;;;;;;;14.76;72.14;101973.72;5087444;28;20051;-69
2022/10/27 09:15:29;;;;;;;2.63;1.20;;;;;;;14.76;72.29;101969.13;5097034;28;20078;-68
2022/10/27 09:18:04;;;;;;;8.00;1.52;;;;;;;14.77;72.42;101964.53;5092262;28;20052;-68
2022/10/27 09:20:36;;;;;;;2.33;1.13;;;;;;;14.78;72.45;101964.31;5086991;28;20561;-68
2022/10/27 09:23:11;;;;;;;3.10;1.02;;;;;;;14.80;72.33;101969.50;5087225;28;20159;-68
2022/10/27 09:25:42;;;;;;;1.98;1.15;;;;;;;14.80;72.23;101964.91;5087003;28;20052;-67
2022/10/27 09:28:17;;;;;;;2.40;1.13;;;;;;;14.82;72.25;101959.28;5087164;28;20053;-67
2022/10/27 09:30:47;;;;;;;2.38;1.17;;;;;;;14.82;72.50;101949.28;5085360;28;20055;-67
2022/10/27 09:33:19;;;;;;;3.67;1.13;;;;;;;14.84;72.53;101951.78;5086662;28;20052;-68
2022/10/27 09:35:49;;;;;;;3.55;1.30;;;;;;;14.86;72.60;101952.38;5086880;28;20059;-68
2022/10/27 09:38:22;;;;;;;2.55;1.50;;;;;;;14.86;72.89;101960.50;5087037;28;20049;-68
2022/10/27 09:40:52;;;;;;;2.47;1.30;;;;;;;14.88;72.82;101951.09;5086596;28;20048;-68
2022/10/27 09:43:21;;;;;;;2.63;1.13;;;;;;;14.82;72.73;101937.63;5086913;28;20053;-68
2022/10/27 09:45:54;;;;;;;3.17;1.20;;;;;;;14.92;72.99;101937.94;5089744;28;20044;-68
2022/10/27 09:48:25;;;;;;;3.35;1.38;;;;;;;14.93;72.76;101932.31;5086223;28;20076;-68
2022/10/27 09:50:58;;;;;;;6.00;1.27;;;;;;;14.95;72.81;101932.09;5086308;28;20059;-67
2022/10/27 09:53:37;;;;;;;2.88;1.05;;;;;;;14.97;72.80;101938.94;5090577;28;20054;-67
2022/10/27 09:56:09;;;;;;;2.85;1.10;;;;;;;14.99;72.98;101933.28;5094831;28;20067;-67
2022/10/27 09:58:45;;;;;;;4.13;1.33;;;;;;;15.01;72.91;101935.78;5086642;28;20047;-68
2022/10/27 10:01:12;;;;;;;1.67;0.87;;;;;;;15.02;72.99;101938.25;5084941;28;20063;-67
2022/10/27 10:03:53;;;;;;;2.85;1.30;;;;;;;14.96;72.81;101937.28;5086098;28;20071;-68
2022/10/27 10:06:28;;;;;;;4.32;1.58;;;;;;;15.05;72.90;101945.94;5086093;28;20060;-68
2022/10/27 10:08:55;;;;;;;2.28;1.10;;;;;;;15.11;73.09;101942.31;5087300;28;20048;-69
2022/10/27 10:11:24;;;;;;;2.53;1.10;;;;;;;15.15;73.28;101940.00;5087908;28;20051;-69
2022/10/27 10:14:02;;;;;;;2.40;1.42;;;;;;;15.15;72.91;101929.16;5106111;28;20054;-71
2022/10/27 10:16:32;;;;;;;4.65;1.65;;;;;;;15.16;72.94;101909.97;5092447;28;20053;-68
2022/10/27 10:19:05;;;;;;;5.65;1.33;;;;;;;15.17;73.09;101911.63;5084759;28;20055;-68
2022/10/27 10:21:46;;;;;;;5.32;1.10;;;;;;;15.12;73.27;101908.78;5086099;28;20059;-68
2022/10/27 10:24:18;;;;;;;3.08;0.98;;;;;;;15.20;73.13;101924.72;5085982;28;20055;-69
2022/10/27 10:26:49;;;;;;;4.30;1.02;;;;;;;15.20;73.28;101916.59;5086088;28;20052;-68
2022/10/27 10:29:26;;;;;;;4.78;1.33;;;;;;;15.23;73.52;101912.63;5085341;28;20063;-68
2022/10/27 10:32:15;;;;;;;9.20;1.50;;;;;;;15.24;73.29;101920.50;5085940;28;20048;-68
2022/10/27 10:34:43;;;;;;;3.17;1.17;;;;;;;15.25;73.34;101918.63;5085121;28;20055;-67
2022/10/27 10:37:32;;;;;;;4.35;1.30;;;;;;;15.27;73.37;101920.06;5085891;28;20052;-68
2022/10/27 10:40:26;;;;;;;3.03;1.35;;;;;;;15.29;73.09;101909.81;5085135;28;20048;-67
2022/10/27 10:43:05;;;;;;;3.20;1.25;;;;;;;15.32;73.38;101899.59;5085725;28;20064;-68
2022/10/27 10:45:35;;;;;;;3.15;1.30;;;;;;;15.34;73.37;101898.31;5089041;28;20058;-67
2022/10/27 10:48:08;;;;;;;3.67;1.20;;;;;;;15.36;73.43;101901.63;5085273;28;20044;-67
2022/10/27 10:50:46;;;;;;;5.32;2.28;;;;;;;15.37;73.35;101892.44;5085210;28;20049;-69
2022/10/27 10:53:24;;;;;;;3.65;1.05;;;;;;;15.40;73.65;101894.69;5087127;28;20048;-68
2022/10/27 10:56:01;;;;;;;3.28;1.05;;;;;;;15.41;74.11;101898.22;5094519;28;20047;-67
2022/10/27 10:58:33;;;;;;;2.30;1.15;;;;;;;15.44;74.27;101898.59;5085710;28;20048;-68
2022/10/27 11:01:02;;;;;;;4.20;1.50;;;;;;;15.47;74.29;101890.00;5084398;28;20066;-68
2022/10/27 11:03:33;;;;;;;4.65;1.25;;;;;;;15.51;74.65;101884.97;5094201;28;20063;-68
2022/10/27 11:06:03;;;;;;;2.90;1.08;;;;;;;15.52;74.56;101887.44;5085182;28;20114;-68
2022/10/27 11:08:37;;;;;;;1.75;0.95;;;;;;;15.55;74.66;101886.16;5085452;28;20053;-67
2022/10/27 11:11:16;;;;;;;4.15;1.40;;;;;;;15.57;74.96;101884.91;5085011;28;20090;-68
2022/10/27 11:13:50;;;;;;;3.00;1.17;;;;;;;15.59;75.07;101888.22;5094980;28;20055;-68
2022/10/27 11:16:18;;;;;;;7.57;1.50;;;;;;;15.62;75.23;101884.19;5103901;28;20040;-68
2022/10/27 11:18:50;;;;;;;2.05;1.52;;;;;;;15.62;75.00;101887.72;5104986;28;20062;-68
2022/10/27 11:21:25;;;;;;;3.63;1.30;;;;;;;15.67;75.04;101880.78;5103932;28;20050;-68
2022/10/27 11:23:56;;;;;;;3.13;1.45;;;;;;;15.70;75.22;101880.31;5091666;28;20048;-68
2022/10/27 11:26:30;;;;;;;5.68;1.35;;;;;;;15.72;75.11;101880.91;5084648;28;20045;-68
2022/10/27 11:29:10;;;;;;;4.65;1.20;;;;;;;15.73;75.18;101891.53;5085100;28;20064;-68
2022/10/27 11:31:46;;;;;;;3.17;1.73;;;;;;;15.74;75.20;101879.63;5084327;28;20052;-68
2022/10/27 11:34:21;;;;;;;7.07;1.50;;;;;;;15.76;75.24;101872.09;5084536;28;20063;-67
2022/10/27 11:36:54;;;;;;;3.33;0.98;;;;;;;15.79;74.91;101868.09;5085048;28;20053;-67
2022/10/27 11:39:30;;;;;;;2.90;1.33;;;;;;;15.79;74.99;101868.94;5087657;28;20143;-67
2022/10/27 11:42:07;;;;;;;3.95;1.67;;;;;;;15.81;75.01;101874.94;5089056;28;20068;-67
2022/10/27 11:44:44;;;;;;;5.57;1.40;;;;;;;15.81;74.90;101861.38;5084746;28;20051;-67